createdAt,value
2019-03-23T00:02:00.739Z,17.70
2019-03-23T00:04:28.296Z,18.32
2019-03-23T00:06:55.844Z,17.27
2019-03-23T00:09:23.352Z,18.92
2019-03-23T00:11:50.899Z,17.62
2019-03-23T00:14:18.382Z,19.67
2019-03-23T00:16:45.838Z,18.30
2019-03-23T00:19:13.312Z,19.92
2019-03-23T00:21:40.742Z,19.70
2019-03-23T00:24:08.282Z,20.12
2019-03-23T00:26:35.842Z,20.02
2019-03-23T00:29:03.380Z,21.02
2019-03-23T00:31:31.027Z,19.50
2019-03-23T00:33:58.608Z,21.23
2019-03-23T00:36:26.052Z,20.25
2019-03-23T00:38:53.501Z,21.07
2019-03-23T00:41:20.850Z,20.48
2019-03-23T00:43:48.294Z,19.57
2019-03-23T00:46:15.834Z,20.68
2019-03-23T00:48:43.280Z,20.43
2019-03-23T00:51:10.734Z,20.57
2019-03-23T00:53:38.183Z,20.55
2019-03-23T00:56:05.729Z,20.75
2019-03-23T00:58:33.178Z,19.73
2019-03-23T01:01:00.820Z,20.12
2019-03-23T01:03:28.353Z,19.40
2019-03-23T01:05:56.624Z,18.52
2019-03-23T01:08:24.257Z,19.05
2019-03-23T01:10:51.800Z,19.67
2019-03-23T01:13:19.267Z,20.05
2019-03-23T01:15:48.178Z,18.55
2019-03-23T01:18:15.888Z,20.85
2019-03-23T01:20:49.525Z,20.32
2019-03-23T01:23:12.816Z,21.27
2019-03-23T01:25:40.297Z,20.55
2019-03-23T01:28:07.743Z,20.25
2019-03-23T01:30:35.194Z,19.73
2019-03-23T01:33:02.639Z,20.00
2019-03-23T01:35:29.993Z,20.32
2019-03-23T01:37:57.392Z,18.95
2019-03-23T01:40:24.842Z,18.92
2019-03-23T01:42:52.301Z,20.12
2019-03-23T01:45:19.743Z,19.98
2019-03-23T01:47:47.321Z,19.98
2019-03-23T01:50:14.884Z,21.05
2019-03-23T01:52:42.339Z,21.50
2019-03-23T01:55:10.089Z,21.12
2019-03-23T01:57:37.651Z,21.05
2019-03-23T02:00:05.878Z,21.12
2019-03-23T02:02:33.426Z,20.55
2019-03-23T02:05:00.849Z,21.48
2019-03-23T02:07:28.413Z,20.55
2019-03-23T02:09:55.853Z,20.30
2019-03-23T02:12:23.415Z,20.68
2019-03-23T02:14:50.945Z,20.65
2019-03-23T02:17:18.496Z,20.17
2019-03-23T02:19:46.061Z,21.40
2019-03-23T02:22:13.494Z,19.95
2019-03-23T02:24:40.914Z,19.17
2019-03-23T02:27:08.354Z,21.20
2019-03-23T02:29:35.872Z,21.02
2019-03-23T02:32:03.419Z,21.57
2019-03-23T02:34:30.754Z,21.23
2019-03-23T02:36:58.296Z,21.48
2019-03-23T02:39:25.734Z,20.32
2019-03-23T02:41:53.078Z,21.23
2019-03-23T02:44:20.513Z,21.20
2019-03-23T02:46:47.958Z,20.57
2019-03-23T02:49:15.394Z,21.52
2019-03-23T02:51:42.914Z,21.62
2019-03-23T02:54:10.431Z,21.60
2019-03-23T02:56:37.758Z,21.40
2019-03-23T02:59:05.102Z,22.40
2019-03-23T03:01:32.617Z,21.73
2019-03-23T03:04:00.050Z,22.00
2019-03-23T03:06:27.484Z,22.87
2019-03-23T03:08:54.995Z,21.60
2019-03-23T03:11:22.315Z,22.30
2019-03-23T03:13:49.641Z,22.55
2019-03-23T03:16:17.181Z,21.77
2019-03-23T03:18:44.508Z,23.15
2019-03-23T03:21:11.820Z,21.65
2019-03-23T03:23:39.166Z,21.40
2019-03-23T03:26:06.470Z,21.40
2019-03-23T03:28:34.235Z,21.82
2019-03-23T03:31:01.546Z,22.17
2019-03-23T03:33:28.862Z,21.07
2019-03-23T03:35:56.196Z,21.20
2019-03-23T03:38:23.507Z,25.08
2019-03-23T03:40:50.924Z,22.73
2019-03-23T03:43:18.454Z,23.30
2019-03-23T03:45:45.875Z,22.05
2019-03-23T03:48:13.275Z,22.27
2019-03-23T03:50:40.721Z,21.82
2019-03-23T03:53:08.029Z,22.52
2019-03-23T03:55:35.571Z,23.27
2019-03-23T03:58:03.106Z,22.27
2019-03-23T04:00:30.627Z,22.40
2019-03-23T04:02:58.074Z,22.87
2019-03-23T04:05:25.511Z,22.25
2019-03-23T04:07:52.935Z,22.00
2019-03-23T04:10:20.367Z,23.35
2019-03-23T04:12:47.700Z,21.97
2019-03-23T04:15:15.141Z,22.58
2019-03-23T04:17:42.765Z,21.02
2019-03-23T04:20:10.667Z,22.73
2019-03-23T04:22:38.087Z,22.30
2019-03-23T04:25:06.517Z,22.20
2019-03-23T04:27:33.877Z,21.87
2019-03-23T04:30:01.297Z,21.87
2019-03-23T04:32:28.622Z,22.32
2019-03-23T04:34:55.962Z,23.12
2019-03-23T04:37:23.698Z,22.35
2019-03-23T04:39:51.081Z,22.58
2019-03-23T04:42:18.409Z,20.68
2019-03-23T04:44:45.851Z,23.02
2019-03-23T04:47:13.161Z,21.68
2019-03-23T04:49:40.486Z,21.68
2019-03-23T04:52:07.943Z,21.90
2019-03-23T04:54:35.371Z,22.20
2019-03-23T04:57:03.194Z,22.48
2019-03-23T04:59:30.492Z,23.00
2019-03-23T05:01:57.899Z,69.42
2019-03-23T05:04:25.225Z,154.55
2019-03-23T05:06:52.642Z,33.02
2019-03-23T05:09:19.953Z,39.05
2019-03-23T05:11:47.374Z,66.28
2019-03-23T05:14:14.794Z,48.58
2019-03-23T05:16:42.121Z,67.60
2019-03-23T05:19:09.438Z,75.65
2019-03-23T05:21:36.858Z,65.55
2019-03-23T05:24:04.299Z,28.60
2019-03-23T05:26:31.594Z,163.05
2019-03-23T05:28:58.912Z,161.28
2019-03-23T05:31:26.218Z,34.85
2019-03-23T05:33:53.567Z,24.15
2019-03-23T05:36:20.965Z,24.90
2019-03-23T05:38:48.414Z,23.87
2019-03-23T05:41:15.792Z,22.05
2019-03-23T05:43:43.114Z,21.70
2019-03-23T05:46:10.537Z,22.67
2019-03-23T05:48:37.966Z,21.95
2019-03-23T05:51:05.377Z,23.18
2019-03-23T05:53:32.685Z,25.10
2019-03-23T05:56:00.005Z,22.37
2019-03-23T05:58:27.451Z,24.00
2019-03-23T06:00:54.972Z,22.07
2019-03-23T06:03:22.305Z,20.90
2019-03-23T06:05:49.632Z,20.88
2019-03-23T06:08:16.973Z,22.13
2019-03-23T06:10:44.360Z,19.12
2019-03-23T06:13:11.765Z,20.57
2019-03-23T06:15:39.201Z,21.40
2019-03-23T06:18:06.619Z,19.67
2019-03-23T06:20:33.949Z,20.82
2019-03-23T06:23:01.358Z,19.63
2019-03-23T06:25:28.793Z,18.73
2019-03-23T06:27:56.323Z,19.77
2019-03-23T06:30:23.826Z,18.57
2019-03-23T06:32:51.233Z,20.47
2019-03-23T06:35:18.647Z,17.73
2019-03-23T06:37:46.049Z,17.50
2019-03-23T06:40:13.589Z,18.47
2019-03-23T06:42:40.992Z,18.03
2019-03-23T06:45:08.841Z,18.80
2019-03-23T06:47:36.232Z,17.03
2019-03-23T06:50:04.634Z,16.90
2019-03-23T06:52:31.942Z,16.27
2019-03-23T06:54:59.240Z,17.13
2019-03-23T06:57:26.526Z,16.57
2019-03-23T06:59:53.822Z,15.53
2019-03-23T07:02:21.205Z,15.37
2019-03-23T07:04:48.700Z,15.57
2019-03-23T07:07:16.089Z,15.87
2019-03-23T07:09:43.400Z,16.63
2019-03-23T07:12:10.917Z,15.10
2019-03-23T07:14:38.236Z,14.40
2019-03-23T07:17:05.655Z,14.73
2019-03-23T07:19:32.977Z,13.97
2019-03-23T07:22:00.374Z,14.40
2019-03-23T07:24:27.681Z,15.00
2019-03-23T07:26:55.079Z,14.33
2019-03-23T07:29:22.381Z,13.73
2019-03-23T07:31:49.775Z,14.33
2019-03-23T07:34:17.083Z,14.93
2019-03-23T07:36:44.377Z,13.57
2019-03-23T07:39:11.690Z,13.80
2019-03-23T07:41:38.994Z,13.97
2019-03-23T07:44:06.297Z,14.57
2019-03-23T07:46:33.601Z,15.10
2019-03-23T07:49:00.894Z,14.63
2019-03-23T07:51:28.308Z,14.13
2019-03-23T07:53:55.588Z,15.03
2019-03-23T07:56:22.894Z,14.70
2019-03-23T07:58:50.195Z,14.93
2019-03-23T08:01:17.606Z,14.70
2019-03-23T08:03:44.908Z,14.03
2019-03-23T08:06:12.261Z,14.13
2019-03-23T08:08:39.574Z,13.20
2019-03-23T08:11:06.977Z,15.03
2019-03-23T08:13:34.414Z,14.93
2019-03-23T08:16:01.741Z,14.60
2019-03-23T08:18:29.140Z,14.63
2019-03-23T08:20:56.450Z,14.27
2019-03-23T08:23:23.754Z,15.03
2019-03-23T08:25:51.287Z,13.63
2019-03-23T08:28:18.619Z,14.07
2019-03-23T08:30:45.953Z,13.73
2019-03-23T08:33:13.393Z,13.20
2019-03-23T08:35:40.722Z,14.97
2019-03-23T08:38:08.132Z,15.00
2019-03-23T08:40:35.910Z,14.10
2019-03-23T08:43:03.678Z,14.57
2019-03-23T08:45:31.106Z,15.97
2019-03-23T08:47:58.427Z,15.50
2019-03-23T08:50:25.758Z,15.43
2019-03-23T08:52:53.091Z,15.50
2019-03-23T08:55:21.951Z,16.17
2019-03-23T08:57:49.425Z,16.57
2019-03-23T09:00:16.765Z,16.67
2019-03-23T09:02:44.278Z,16.50
2019-03-23T09:05:11.798Z,18.57
2019-03-23T09:07:39.315Z,18.93
2019-03-23T09:10:07.568Z,17.43
2019-03-23T09:12:36.061Z,20.47
2019-03-23T09:15:04.454Z,19.10
2019-03-23T09:17:31.760Z,21.40
2019-03-23T09:19:59.188Z,21.43
2019-03-23T09:22:26.588Z,22.43
2019-03-23T09:24:57.046Z,23.57
2019-03-23T09:27:23.241Z,24.97
2019-03-23T09:29:50.568Z,26.30
2019-03-23T09:32:18.189Z,25.43
2019-03-23T09:34:45.601Z,23.53
2019-03-23T09:37:12.945Z,24.57
2019-03-23T09:39:40.475Z,22.83
2019-03-23T09:42:07.799Z,24.17
2019-03-23T09:44:35.094Z,23.17
2019-03-23T09:47:02.422Z,24.50
2019-03-23T09:49:29.855Z,25.17
2019-03-23T09:51:57.276Z,24.30
2019-03-23T09:54:24.705Z,24.27
2019-03-23T09:56:52.230Z,25.43
2019-03-23T09:59:19.527Z,24.80
2019-03-23T10:01:49.713Z,24.33
2019-03-23T10:04:17.025Z,24.90
2019-03-23T10:06:44.357Z,23.77
2019-03-23T10:09:11.758Z,23.80
2019-03-23T10:11:39.073Z,23.27
2019-03-23T10:14:06.476Z,24.27
2019-03-23T10:16:33.810Z,24.60
2019-03-23T10:19:01.206Z,23.27
2019-03-23T10:21:28.615Z,24.43
2019-03-23T10:23:55.916Z,24.57
2019-03-23T10:26:23.253Z,23.67
2019-03-23T10:28:50.666Z,22.97
2019-03-23T10:31:18.058Z,22.57
2019-03-23T10:33:45.526Z,24.27
2019-03-23T10:36:12.854Z,22.90
2019-03-23T10:38:40.145Z,22.50
2019-03-23T10:41:07.460Z,22.93
2019-03-23T10:43:34.764Z,23.27
2019-03-23T10:46:02.176Z,22.47
2019-03-23T10:48:29.477Z,22.53
2019-03-23T10:50:56.804Z,22.22
2019-03-23T10:53:24.107Z,22.93
2019-03-23T10:55:51.545Z,22.70
2019-03-23T10:58:18.912Z,22.48
2019-03-23T11:00:46.336Z,23.30
2019-03-23T11:03:13.761Z,23.27
2019-03-23T11:05:41.076Z,22.85
2019-03-23T11:08:08.502Z,21.97
2019-03-23T11:10:41.710Z,22.97
2019-03-23T11:13:05.252Z,24.67
2019-03-23T11:15:32.690Z,22.27
2019-03-23T11:18:00.001Z,23.47
2019-03-23T11:20:27.294Z,25.68
2019-03-23T11:22:54.787Z,24.73
2019-03-23T11:25:22.315Z,24.47
2019-03-23T11:27:49.818Z,24.83
2019-03-23T11:30:17.279Z,24.15
2019-03-23T11:32:44.848Z,24.80
2019-03-23T11:35:12.433Z,25.50
2019-03-23T11:37:40.368Z,25.30
2019-03-23T11:40:09.065Z,26.73
2019-03-23T11:42:36.586Z,26.47
2019-03-23T11:45:05.349Z,25.87
2019-03-23T11:47:32.723Z,24.33
2019-03-23T11:50:00.068Z,26.13
2019-03-23T11:52:27.517Z,25.17
2019-03-23T11:54:54.937Z,24.87
2019-03-23T11:57:22.261Z,24.37
2019-03-23T11:59:49.597Z,26.20
2019-03-23T12:02:17.006Z,25.68
2019-03-23T12:04:44.304Z,25.82
2019-03-23T12:07:11.634Z,25.37
2019-03-23T12:09:38.919Z,26.05
2019-03-23T12:12:06.341Z,27.17
2019-03-23T12:14:33.673Z,26.60
2019-03-23T12:17:01.106Z,25.17
2019-03-23T12:19:28.425Z,26.37
2019-03-23T12:21:55.741Z,24.98
2019-03-23T12:24:23.029Z,26.45
2019-03-23T12:26:50.345Z,25.23
2019-03-23T12:29:17.663Z,25.25
2019-03-23T12:31:44.972Z,27.15
2019-03-23T12:34:12.289Z,26.75
2019-03-23T12:36:39.701Z,26.68
2019-03-23T12:39:07.127Z,26.37
2019-03-23T12:41:34.565Z,27.35
2019-03-23T12:44:02.069Z,26.65
2019-03-23T12:46:29.364Z,26.37
2019-03-23T12:48:56.784Z,25.85
2019-03-23T12:51:24.181Z,26.45
2019-03-23T12:53:51.688Z,26.48
2019-03-23T12:56:19.041Z,27.32
2019-03-23T12:58:46.577Z,27.98
2019-03-23T13:01:13.893Z,27.20
2019-03-23T13:03:41.410Z,28.55
2019-03-23T13:06:08.735Z,26.00
2019-03-23T13:08:36.054Z,26.97
2019-03-23T13:11:03.493Z,27.37
2019-03-23T13:13:30.906Z,27.95
2019-03-23T13:15:58.220Z,27.27
2019-03-23T13:18:27.411Z,28.67
2019-03-23T13:20:54.849Z,28.40
2019-03-23T13:23:22.172Z,28.00
2019-03-23T13:25:49.577Z,26.65
2019-03-23T13:28:16.992Z,27.20
2019-03-23T13:30:44.408Z,27.73
2019-03-23T13:33:11.824Z,25.88
2019-03-23T13:35:39.137Z,26.75
2019-03-23T13:38:06.466Z,27.30
2019-03-23T13:40:33.785Z,27.32
2019-03-23T13:43:03.497Z,25.85
2019-03-23T13:45:30.432Z,26.15
2019-03-23T13:47:57.846Z,27.90
2019-03-23T13:50:26.442Z,26.57
2019-03-23T13:52:53.893Z,25.88
2019-03-23T13:55:26.001Z,27.23
2019-03-23T13:57:53.411Z,26.87
2019-03-23T14:00:21.010Z,27.00
2019-03-23T14:02:48.512Z,27.22
2019-03-23T14:05:16.408Z,28.42
2019-03-23T14:07:43.889Z,26.00
2019-03-23T14:10:11.425Z,27.40
2019-03-23T14:12:38.859Z,26.60
2019-03-23T14:15:06.930Z,25.62
2019-03-23T14:17:34.225Z,25.73
2019-03-23T14:20:01.781Z,28.17
2019-03-23T14:22:29.153Z,27.03
2019-03-23T14:24:56.450Z,27.20
2019-03-23T14:27:23.768Z,26.27
2019-03-23T14:29:51.192Z,27.87
2019-03-23T14:32:18.607Z,26.07
2019-03-23T14:34:46.030Z,27.47
2019-03-23T14:37:13.341Z,27.73
2019-03-23T14:39:40.748Z,25.50
2019-03-23T14:42:08.145Z,27.93
2019-03-23T14:44:35.460Z,27.03
2019-03-23T14:47:02.874Z,28.57
2019-03-23T14:49:30.188Z,29.00
2019-03-23T14:51:57.505Z,27.93
2019-03-23T14:54:24.952Z,27.83
2019-03-23T14:56:52.372Z,27.17
2019-03-23T14:59:19.773Z,26.37
2019-03-23T15:01:47.085Z,28.67
2019-03-23T15:04:14.391Z,28.40
2019-03-23T15:06:41.676Z,27.97
2019-03-23T15:09:09.198Z,29.10
2019-03-23T15:11:36.481Z,28.03
2019-03-23T15:14:04.097Z,28.87
2019-03-23T15:16:31.508Z,27.70
2019-03-23T15:18:58.825Z,28.07
2019-03-23T15:21:26.133Z,29.50
2019-03-23T15:23:53.449Z,28.63
2019-03-23T15:26:20.852Z,27.47
2019-03-23T15:28:48.159Z,29.13
2019-03-23T15:31:15.463Z,28.03
2019-03-23T15:33:42.783Z,28.20
2019-03-23T15:36:10.191Z,28.33
2019-03-23T15:38:37.610Z,31.03
2019-03-23T15:41:05.138Z,29.17
2019-03-23T15:43:32.441Z,29.17
2019-03-23T15:46:00.256Z,27.80
2019-03-23T15:48:28.733Z,29.03
2019-03-23T15:50:56.408Z,28.87
2019-03-23T15:53:23.805Z,28.97
2019-03-23T15:55:51.838Z,29.13
2019-03-23T15:58:19.128Z,30.00
2019-03-23T16:00:46.539Z,30.47
2019-03-23T16:03:13.945Z,30.07
2019-03-23T16:05:41.350Z,28.53
2019-03-23T16:08:08.778Z,28.80
2019-03-23T16:10:36.271Z,28.50
2019-03-23T16:13:03.682Z,28.70
2019-03-23T16:15:31.099Z,28.43
2019-03-23T16:17:58.496Z,29.33
2019-03-23T16:20:25.811Z,27.73
2019-03-23T16:22:53.223Z,27.30
2019-03-23T16:25:20.644Z,27.10
2019-03-23T16:27:48.065Z,27.87
2019-03-23T16:30:20.273Z,28.53
2019-03-23T16:32:47.596Z,29.57
2019-03-23T16:35:15.013Z,28.07
2019-03-23T16:37:42.421Z,26.67
2019-03-23T16:40:10.238Z,26.97
2019-03-23T16:42:44.594Z,28.27
2019-03-23T16:45:08.182Z,24.33
2019-03-23T16:47:35.884Z,27.67
2019-03-23T16:50:04.157Z,27.27
2019-03-23T16:52:31.458Z,27.10
2019-03-23T16:54:58.765Z,27.67
2019-03-23T16:57:26.077Z,25.43
2019-03-23T16:59:53.391Z,25.53
2019-03-23T17:02:20.807Z,25.93
2019-03-23T17:04:48.205Z,25.63
2019-03-23T17:07:15.583Z,26.13
2019-03-23T17:09:42.896Z,25.70
2019-03-23T17:12:10.649Z,24.80
2019-03-23T17:14:37.994Z,26.80
2019-03-23T17:17:05.545Z,30.13
2019-03-23T17:19:32.934Z,25.77
2019-03-23T17:22:00.259Z,27.37
2019-03-23T17:24:27.666Z,24.63
2019-03-23T17:26:54.964Z,26.20
2019-03-23T17:29:22.269Z,23.70
2019-03-23T17:31:49.607Z,23.23
2019-03-23T17:34:16.912Z,24.00
2019-03-23T17:36:44.237Z,25.60
2019-03-23T17:39:11.567Z,26.53
2019-03-23T17:41:38.879Z,31.47
2019-03-23T17:44:06.276Z,33.20
2019-03-23T17:46:33.823Z,46.90
2019-03-23T17:49:01.178Z,34.73
2019-03-23T17:51:28.592Z,28.93
2019-03-23T17:53:58.805Z,24.87
2019-03-23T17:56:25.225Z,22.57
2019-03-23T17:58:52.529Z,21.67
2019-03-23T18:01:19.937Z,22.70
2019-03-23T18:03:47.384Z,21.60
2019-03-23T18:06:14.919Z,21.90
2019-03-23T18:08:42.414Z,21.40
2019-03-23T18:11:09.965Z,21.83
2019-03-23T18:13:37.421Z,21.30
2019-03-23T18:16:05.026Z,21.03
2019-03-23T18:18:32.314Z,19.77
2019-03-23T18:20:59.734Z,20.33
2019-03-23T18:23:27.016Z,19.90
2019-03-23T18:25:54.344Z,19.20
2019-03-23T18:28:21.753Z,20.33
2019-03-23T18:30:49.154Z,19.13
2019-03-23T18:33:16.659Z,18.80
2019-03-23T18:35:44.171Z,19.90
2019-03-23T18:38:11.687Z,19.10
2019-03-23T18:40:39.222Z,18.17
2019-03-23T18:43:07.180Z,19.00
2019-03-23T18:45:34.779Z,19.17
2019-03-23T18:48:02.325Z,19.47
2019-03-23T18:50:29.866Z,20.23
2019-03-23T18:52:57.290Z,19.63
2019-03-23T18:55:24.688Z,19.23
2019-03-23T18:57:52.060Z,19.03
2019-03-23T19:00:32.942Z,18.60
2019-03-23T19:03:00.818Z,19.23
2019-03-23T19:05:28.115Z,18.20
2019-03-23T19:07:55.414Z,21.37
2019-03-23T19:10:22.728Z,21.77
2019-03-23T19:12:50.373Z,23.97
2019-03-23T19:15:17.777Z,26.47
2019-03-23T19:17:45.206Z,23.80
2019-03-23T19:20:12.710Z,22.93
2019-03-23T19:22:40.025Z,24.73
2019-03-23T19:25:15.919Z,23.53
2019-03-23T19:27:36.840Z,22.47
2019-03-23T19:30:05.032Z,23.47
2019-03-23T19:32:32.362Z,21.73
2019-03-23T19:35:00.351Z,24.57
2019-03-23T19:37:27.890Z,27.53
2019-03-23T19:39:55.290Z,26.20
2019-03-23T19:42:22.592Z,32.87
2019-03-23T19:44:49.998Z,35.40
2019-03-23T19:47:17.411Z,28.87
2019-03-23T19:49:44.733Z,25.70
2019-03-23T19:52:12.111Z,25.03
2019-03-23T19:54:39.406Z,24.97
2019-03-23T19:57:06.906Z,24.73
2019-03-23T19:59:34.229Z,30.27
2019-03-23T20:02:01.641Z,28.80
2019-03-23T20:04:28.962Z,25.80
2019-03-23T20:06:56.302Z,24.50
2019-03-23T20:09:23.716Z,24.03
2019-03-23T20:11:51.022Z,25.73
2019-03-23T20:14:18.424Z,24.50
2019-03-23T20:16:45.733Z,24.17
2019-03-23T20:19:13.245Z,24.77
2019-03-23T20:21:40.558Z,24.07
2019-03-23T20:24:07.973Z,23.20
2019-03-23T20:26:35.293Z,24.40
2019-03-23T20:29:02.822Z,23.93
2019-03-23T20:31:30.213Z,26.30
2019-03-23T20:33:57.531Z,25.53
2019-03-23T20:36:24.947Z,25.40
2019-03-23T20:38:52.370Z,24.87
2019-03-23T20:41:19.677Z,26.63
2019-03-23T20:43:46.989Z,26.57
2019-03-23T20:46:14.289Z,26.07
2019-03-23T20:48:42.394Z,24.23
2019-03-23T20:51:10.385Z,25.50
2019-03-23T20:53:38.101Z,26.90
2019-03-23T20:56:05.605Z,26.13
2019-03-23T20:58:32.953Z,25.87
2019-03-23T21:01:00.256Z,25.17
2019-03-23T21:03:27.563Z,25.10
2019-03-23T21:05:54.872Z,25.90
2019-03-23T21:08:22.315Z,25.27
2019-03-23T21:10:49.731Z,25.93
2019-03-23T21:13:17.048Z,24.43
2019-03-23T21:15:45.088Z,27.77
2019-03-23T21:18:12.502Z,26.83
2019-03-23T21:20:39.919Z,26.43
2019-03-23T21:23:07.329Z,25.03
2019-03-23T21:25:34.753Z,25.37
2019-03-23T21:28:02.062Z,25.93
2019-03-23T21:30:29.503Z,27.20
2019-03-23T21:32:56.800Z,26.83
2019-03-23T21:35:24.107Z,25.40
2019-03-23T21:37:51.496Z,27.43
2019-03-23T21:40:18.907Z,28.33
2019-03-23T21:42:46.407Z,26.40
2019-03-23T21:45:14.525Z,26.77
2019-03-23T21:47:41.821Z,26.53
2019-03-23T21:50:09.871Z,26.80
2019-03-23T21:52:37.169Z,26.70
2019-03-23T21:55:05.503Z,25.80
2019-03-23T21:57:32.801Z,26.33
2019-03-23T22:00:00.158Z,29.03
2019-03-23T22:02:27.725Z,27.93
2019-03-23T22:04:55.026Z,27.63
2019-03-23T22:07:22.325Z,27.30
2019-03-23T22:09:49.728Z,28.73
2019-03-23T22:12:17.053Z,27.47
2019-03-23T22:14:44.372Z,27.97
2019-03-23T22:17:11.801Z,27.33
2019-03-23T22:19:39.128Z,25.83
2019-03-23T22:22:06.653Z,26.17
2019-03-23T22:24:34.057Z,24.47
2019-03-23T22:27:01.450Z,27.77
2019-03-23T22:29:28.871Z,27.03
2019-03-23T22:31:56.269Z,27.03
2019-03-23T22:34:23.605Z,28.23
2019-03-23T22:36:50.986Z,29.60
2019-03-23T22:39:18.301Z,30.97
2019-03-23T22:41:45.708Z,30.27
2019-03-23T22:44:13.017Z,30.23
2019-03-23T22:46:40.420Z,31.00
2019-03-23T22:49:07.837Z,31.70
2019-03-23T22:51:35.241Z,33.37
2019-03-23T22:54:02.760Z,33.13
2019-03-23T22:56:30.148Z,34.83
2019-03-23T22:58:57.456Z,32.10
2019-03-23T23:01:24.981Z,33.47
2019-03-23T23:03:52.405Z,32.53
2019-03-23T23:06:19.825Z,31.93
2019-03-23T23:08:47.136Z,33.30
2019-03-23T23:11:14.671Z,31.90
2019-03-23T23:13:42.073Z,32.30
2019-03-23T23:16:09.489Z,30.67
2019-03-23T23:18:36.781Z,31.83
2019-03-23T23:21:04.292Z,34.07
2019-03-23T23:23:31.597Z,34.27
2019-03-23T23:25:58.929Z,34.60
2019-03-23T23:28:26.245Z,35.27
2019-03-23T23:30:54.078Z,33.77
2019-03-23T23:33:21.484Z,34.00
2019-03-23T23:35:48.793Z,36.27
2019-03-23T23:38:16.213Z,36.73
2019-03-23T23:40:43.643Z,36.23
2019-03-23T23:43:10.960Z,37.77
2019-03-23T23:45:38.377Z,39.57
2019-03-23T23:48:05.786Z,39.03
2019-03-23T23:50:33.201Z,38.53
2019-03-23T23:53:00.604Z,38.77
2019-03-23T23:55:27.928Z,37.83
2019-03-23T23:57:55.249Z,38.50
